Terminal Aerodrome Forecast
Issued by NWS

Home | Current Version | Previous Version | Text Only | Print | Product List | Glossary On
Versions: 1 2 3 4 5 6 7 8 9 10 11 12 13 14
000
FTUS42 TJSJ 161100
TAFNCM
TAF
TNCM 161122Z 1612/1712 07004KT P6SM FEW018
     FM161400 12008KT P6SM FEW020
     FM162300 08006KT P6SM VCSH SCT018=

USA.gov is the U.S. government's official web portal to all federal, state and local government web resources and services.